Time;durP1;ratioP1;P1;durP2;ratioP2;P2;SDS_P1;SDS_P2;PMS_P1;PMS_P2;Temp;Humidity;BMP_temperature;BMP_pressure;BME280_temperature;BME280_humidity;BME280_pressure;Samples;Min_cycle;Max_cycle;Signal;HPM_P1;HPM_P2
2023/05/29 00:00:23;;;;;;;;;12.33;10.67;;;;;20.44;48.53;101409.25;5078401;27;45248;-42
2023/05/29 00:02:50;;;;;;;;;17.00;11.00;;;;;20.41;48.99;101409.63;5078550;27;45374;-44
2023/05/29 00:05:16;;;;;;;;;11.50;10.25;;;;;20.39;49.11;101406.25;5078114;27;46113;-42
2023/05/29 00:07:41;;;;;;;;;15.00;11.00;;;;;20.34;49.42;101409.56;5078509;27;45491;-45
2023/05/29 00:10:08;;;;;;;;;14.67;10.67;;;;;20.36;48.95;101407.50;5078137;27;45436;-43
2023/05/29 00:12:34;;;;;;;;;11.67;9.00;;;;;20.32;49.62;101408.94;5078216;27;45297;-43
2023/05/29 00:15:00;;;;;;;;;13.75;9.50;;;;;20.30;48.99;101418.25;5077993;27;47325;-42
2023/05/29 00:17:27;;;;;;;;;12.67;10.67;;;;;20.30;48.89;101410.16;5078274;27;45488;-44
2023/05/29 00:19:53;;;;;;;;;14.67;10.00;;;;;20.26;49.31;101420.50;5057824;28;45266;-44
2023/05/29 00:22:19;;;;;;;;;13.25;10.00;;;;;20.24;49.27;101421.75;5058464;28;45342;-52
2023/05/29 00:24:44;;;;;;;;;14.00;10.67;;;;;20.19;49.21;101411.53;5057475;28;47092;-44
2023/05/29 00:27:10;;;;;;;;;16.00;12.00;;;;;20.04;49.57;101405.34;5057448;28;45367;-42
2023/05/29 00:29:37;;;;;;;;;11.33;9.67;;;;;20.14;49.51;101428.31;5039535;28;45392;-45
2023/05/29 00:32:04;;;;;;;;;13.50;12.00;;;;;20.15;49.18;101427.28;5057613;28;45436;-44
2023/05/29 00:34:29;;;;;;;;;10.33;9.33;;;;;20.13;49.57;101418.50;5057394;28;46448;-43
2023/05/29 00:36:55;;;;;;;;;8.75;8.00;;;;;20.13;49.60;101425.78;5057247;28;45447;-44
2023/05/29 00:39:21;;;;;;;;;11.33;10.67;;;;;20.11;49.24;101425.97;5057454;28;45283;-43
2023/05/29 00:41:50;;;;;;;;;9.00;7.00;;;;;20.08;49.54;101426.34;5057038;28;45375;-42
2023/05/29 00:44:16;;;;;;;;;13.67;10.00;;;;;20.05;49.51;101425.91;5057213;28;47198;-42
2023/05/29 00:46:41;;;;;;;;;13.67;9.00;;;;;20.03;49.66;101423.41;5057091;28;45329;-42
2023/05/29 00:49:07;;;;;;;;;11.67;9.33;;;;;20.00;49.94;101417.56;5057349;28;45426;-43
2023/05/29 00:51:32;;;;;;;;;13.67;9.33;;;;;19.92;49.80;101411.22;5057674;28;45655;-43
2023/05/29 00:53:59;;;;;;;;;11.75;10.00;;;;;19.93;49.92;101409.38;5057031;28;45904;-46
2023/05/29 00:56:25;;;;;;;;;12.75;8.50;;;;;19.77;49.61;101390.75;5057020;28;45411;-46
2023/05/29 00:58:52;;;;;;;;;13.67;11.67;;;;;19.88;49.82;101414.50;5057241;28;45377;-43
2023/05/29 01:01:18;;;;;;;;;9.75;9.00;;;;;19.85;49.87;101414.91;5057436;28;45357;-42
2023/05/29 01:03:48;;;;;;;;;16.00;11.00;;;;;19.81;49.97;101425.25;5057168;28;46249;-44
2023/05/29 01:06:14;;;;;;;;;14.00;10.33;;;;;19.78;50.12;101419.41;5056802;28;45277;-44
2023/05/29 01:08:39;;;;;;;;;13.75;8.75;;;;;19.75;50.26;101420.59;5056890;28;45417;-43
2023/05/29 01:11:16;;;;;;;;;9.50;8.00;;;;;19.73;49.98;101413.75;5056976;28;45463;-44
2023/05/29 01:13:45;;;;;;;;;13.33;9.67;;;;;19.66;49.73;101406.38;5056422;28;46269;-45
2023/05/29 01:16:30;;;;;;;;;11.67;10.33;;;;;19.65;49.65;101407.41;5056753;28;45321;-46
2023/05/29 01:19:16;;;;;;;;;14.67;11.00;;;;;19.62;50.04;101424.00;5056938;28;45324;-47
2023/05/29 01:21:47;;;;;;;;;15.00;10.00;;;;;19.62;50.41;101415.06;5057024;28;45519;-45
2023/05/29 01:24:38;;;;;;;;;11.33;11.33;;;;;19.57;50.03;101420.16;5056630;28;46006;-45
2023/05/29 01:27:05;;;;;;;;;13.00;11.00;;;;;19.39;50.68;101385.50;5056235;28;45417;-44
2023/05/29 01:29:34;;;;;;;;;11.67;7.67;;;;;19.49;50.17;101417.56;5056625;28;45436;-46
2023/05/29 01:32:01;;;;;;;;;13.67;9.67;;;;;19.36;50.52;101394.78;5056747;28;45332;-43
2023/05/29 01:34:27;;;;;;;;;16.33;10.67;;;;;19.48;50.82;101430.22;5056281;28;47069;-47
2023/05/29 01:36:53;;;;;;;;;9.67;9.00;;;;;19.46;50.44;101426.88;5056513;28;45427;-42
2023/05/29 01:39:20;;;;;;;;;10.33;8.33;;;;;19.44;50.70;101426.22;5072283;28;45400;-42
2023/05/29 01:41:46;;;;;;;;;13.33;9.33;;;;;19.41;50.42;101430.13;5056872;28;45553;-42
2023/05/29 01:44:13;;;;;;;;;13.67;9.00;;;;;19.38;50.82;101426.97;5056690;28;45350;-45
2023/05/29 01:46:40;;;;;;;;;14.33;10.00;;;;;19.36;50.82;101421.78;5056329;28;45432;-46
2023/05/29 01:49:07;;;;;;;;;13.00;9.67;;;;;19.33;50.89;101426.69;5056582;28;45353;-46
2023/05/29 01:51:32;;;;;;;;;13.33;8.67;;;;;19.30;50.80;101419.84;5056550;28;45560;-44
2023/05/29 01:54:01;;;;;;;;;10.33;8.00;;;;;19.28;50.98;101424.56;5055193;28;46152;-46
2023/05/29 01:56:29;;;;;;;;;9.00;8.00;;;;;19.25;50.89;101416.00;5056242;28;45475;-42
2023/05/29 01:58:55;;;;;;;;;11.33;8.33;;;;;19.22;50.96;101427.19;5056201;28;45458;-44
2023/05/29 02:01:21;;;;;;;;;15.67;10.00;;;;;19.16;51.20;101402.63;5056562;28;45352;-42
2023/05/29 02:03:47;;;;;;;;;9.00;8.00;;;;;19.18;51.16;101422.16;5055989;28;46971;-45
2023/05/29 02:06:12;;;;;;;;;10.00;10.00;;;;;19.13;51.15;101415.63;5055896;28;45403;-44
2023/05/29 02:08:37;;;;;;;;;10.33;9.00;;;;;19.12;51.19;101413.97;5056259;28;45748;-44
2023/05/29 02:11:03;;;;;;;;;15.33;8.67;;;;;19.07;51.40;101411.84;5056011;28;45399;-42
2023/05/29 02:13:28;;;;;;;;;11.67;8.67;;;;;19.05;51.40;101422.00;5055803;28;46152;-44
2023/05/29 02:15:54;;;;;;;;;10.67;9.00;;;;;19.02;51.47;101424.22;5055570;28;45392;-46
2023/05/29 02:18:20;;;;;;;;;15.33;10.00;;;;;18.91;51.60;101407.47;5056267;28;45299;-43
2023/05/29 02:20:45;;;;;;;;;14.00;9.33;;;;;18.95;51.78;101416.00;5056166;28;45336;-42
2023/05/29 02:23:11;;;;;;;;;17.00;11.67;;;;;18.80;51.61;101401.72;5055858;28;46139;-44
2023/05/29 02:25:37;;;;;;;;;9.33;9.00;;;;;18.88;51.83;101417.81;5055574;28;45412;-45
2023/05/29 02:28:03;;;;;;;;;14.00;8.00;;;;;18.71;51.67;101398.25;5055920;28;45887;-42
2023/05/29 02:30:28;;;;;;;;;15.00;10.33;;;;;18.78;52.03;101417.22;5056074;28;45495;-42
2023/05/29 02:32:54;;;;;;;;;10.67;8.33;;;;;18.76;52.42;101420.09;5055418;28;45400;-42
2023/05/29 02:35:22;;;;;;;;;15.00;9.67;;;;;18.62;52.09;101399.31;5055706;28;45347;-42
2023/05/29 02:37:50;;;;;;;;;12.67;8.33;;;;;18.72;52.58;101428.75;5056055;28;45435;-42
2023/05/29 02:40:16;;;;;;;;;11.33;9.00;;;;;18.68;52.41;101422.84;5055756;28;45388;-42
2023/05/29 02:42:42;;;;;;;;;11.67;9.67;;;;;18.57;52.68;101409.81;5055076;28;45466;-43
2023/05/29 02:45:08;;;;;;;;;15.33;9.00;;;;;18.59;52.79;101426.66;5055585;28;45339;-43
2023/05/29 02:47:33;;;;;;;;;10.67;7.67;;;;;18.54;52.89;101427.19;5055826;28;45374;-42
2023/05/29 02:49:59;;;;;;;;;13.00;10.00;;;;;18.51;53.18;101437.50;5071332;28;45502;-43
2023/05/29 02:52:24;;;;;;;;;14.00;10.33;;;;;18.46;53.19;101432.66;5055387;28;47248;-42
2023/05/29 02:54:49;;;;;;;;;10.33;8.67;;;;;18.43;53.44;101433.84;5055325;28;45428;-42
2023/05/29 02:57:15;;;;;;;;;11.00;6.00;;;;;18.41;53.32;101437.72;5055529;28;45395;-43
2023/05/29 02:59:41;;;;;;;;;11.00;11.00;;;;;18.38;53.63;101438.94;5055541;28;45151;-42
2023/05/29 03:02:06;;;;;;;;;17.00;13.00;;;;;18.34;53.17;101434.09;5055359;28;46124;-42
2023/05/29 03:04:31;;;;;;;;;17.67;16.67;;;;;18.30;53.86;101436.31;5056772;28;45379;-42
2023/05/29 03:06:57;;;;;;;;;14.67;9.33;;;;;18.26;54.05;101448.47;5058918;28;45387;-42
2023/05/29 03:09:22;;;;;;;;;12.00;10.00;;;;;18.23;54.09;101437.22;5059288;28;45183;-42
2023/05/29 03:11:49;;;;;;;;;12.33;9.33;;;;;18.19;54.17;101437.56;5058367;28;46224;-43
2023/05/29 03:14:15;;;;;;;;;20.67;12.00;;;;;18.11;54.37;101437.63;5058712;28;45397;-42
2023/05/29 03:16:40;;;;;;;;;48.00;35.00;;;;;18.11;53.16;101442.16;5058769;28;45379;-42
2023/05/29 03:19:07;;;;;;;;;14.33;12.67;;;;;18.07;54.51;101447.06;5059138;28;45337;-42
2023/05/29 03:21:33;;;;;;;;;16.67;11.00;;;;;18.01;54.64;101452.34;5058816;28;45319;-42
2023/05/29 03:23:58;;;;;;;;;17.00;11.67;;;;;17.95;54.73;101449.34;5058239;28;45397;-42
2023/05/29 03:26:23;;;;;;;;;13.00;10.00;;;;;17.93;54.65;101445.97;5057238;28;45423;-41
2023/05/29 03:28:49;;;;;;;;;11.67;9.00;;;;;17.90;54.91;101449.03;5058938;28;45319;-42
2023/05/29 03:31:14;;;;;;;;;10.33;7.00;;;;;17.86;54.92;101450.41;5058515;28;45504;-43
2023/05/29 03:33:39;;;;;;;;;13.67;9.67;;;;;17.82;55.16;101451.75;5058456;28;45509;-42
2023/05/29 03:36:07;;;;;;;;;11.33;10.33;;;;;17.79;55.43;101454.81;5058541;28;45365;-43
2023/05/29 03:38:32;;;;;;;;;12.67;9.67;;;;;17.75;55.09;101458.06;5058561;28;45451;-42
2023/05/29 03:40:58;;;;;;;;;16.00;11.33;;;;;17.71;55.55;101455.66;5058297;28;46159;-43
2023/05/29 03:43:23;;;;;;;;;11.00;10.00;;;;;17.69;55.98;101460.38;5058072;28;45447;-44
2023/05/29 03:45:49;;;;;;;;;13.00;9.33;;;;;17.68;55.99;101464.09;5058848;28;45300;-42
2023/05/29 03:48:15;;;;;;;;;8.33;7.33;;;;;17.66;56.03;101463.44;5058752;28;45480;-41
2023/05/29 03:50:40;;;;;;;;;11.67;10.00;;;;;17.66;56.10;101465.28;5074084;28;46069;-42
2023/05/29 03:53:05;;;;;;;;;13.00;9.00;;;;;17.65;55.74;101458.22;5058057;28;45370;-42
2023/05/29 03:55:31;;;;;;;;;14.67;9.67;;;;;17.57;56.21;101466.31;5056601;28;44752;-42
2023/05/29 03:57:56;;;;;;;;;14.00;9.33;;;;;17.54;56.09;101475.59;5058382;28;45472;-42
2023/05/29 04:00:22;;;;;;;;;12.00;11.00;;;;;17.50;56.45;101474.28;5058012;28;46037;-42
2023/05/29 04:02:47;;;;;;;;;17.00;11.00;;;;;17.47;56.77;101480.00;5058117;28;45317;-46
2023/05/29 04:05:13;;;;;;;;;8.67;8.67;;;;;17.46;56.73;101476.47;5058179;28;45606;-43
2023/05/29 04:07:38;;;;;;;;;47.33;35.67;;;;;17.44;56.13;101483.03;5057932;28;45379;-44
2023/05/29 04:10:06;;;;;;;;;12.67;5.67;;;;;17.42;56.94;101483.19;5057721;28;46102;-42
2023/05/29 04:12:32;;;;;;;;;11.33;11.00;;;;;17.40;56.85;101487.94;5057314;28;45414;-45
2023/05/29 04:14:57;;;;;;;;;13.33;10.67;;;;;17.38;57.05;101489.94;5057721;28;45195;-42
2023/05/29 04:17:23;;;;;;;;;11.67;8.67;;;;;17.36;57.12;101491.13;5057373;28;45714;-46
2023/05/29 04:19:48;;;;;;;;;18.67;12.00;;;;;17.37;56.91;101496.34;5057725;28;45238;-42
2023/05/29 04:22:14;;;;;;;;;13.33;11.67;;;;;17.28;57.11;101481.25;5057677;28;45474;-43
2023/05/29 04:24:41;;;;;;;;;12.33;9.00;;;;;17.27;57.03;101486.78;5057949;28;45269;-42
2023/05/29 04:27:08;;;;;;;;;13.00;9.33;;;;;17.29;57.14;101500.91;5057942;28;45513;-42
2023/05/29 04:29:34;;;;;;;;;14.00;10.00;;;;;17.27;57.35;101490.28;5057419;28;46302;-42
2023/05/29 04:32:03;;;;;;;;;14.33;10.33;;;;;17.25;57.68;101500.41;5057381;28;45539;-43
2023/05/29 04:34:30;;;;;;;;;12.33;12.00;;;;;17.26;57.54;101512.81;5057616;28;45328;-46
2023/05/29 04:36:58;;;;;;;;;13.33;10.33;;;;;17.28;57.19;101515.38;5057741;28;45494;-44
2023/05/29 04:39:23;;;;;;;;;12.00;11.00;;;;;17.13;57.42;101497.22;5057294;28;47579;-42
2023/05/29 04:41:49;;;;;;;;;18.00;12.00;;;;;17.26;57.34;101520.91;5057627;28;45411;-43
2023/05/29 04:44:15;;;;;;;;;15.00;11.00;;;;;17.24;57.17;101519.41;5057390;28;45688;-45
2023/05/29 04:46:40;;;;;;;;;13.33;12.00;;;;;17.22;57.56;101516.88;5057798;28;45479;-45
2023/05/29 04:49:05;;;;;;;;;13.33;10.00;;;;;17.19;57.73;101523.44;5057242;28;45285;-42
2023/05/29 04:51:31;;;;;;;;;12.33;9.33;;;;;17.19;57.31;101530.66;5057116;28;45329;-44
2023/05/29 04:53:56;;;;;;;;;17.33;13.33;;;;;17.11;57.72;101525.31;5057575;28;45421;-45
2023/05/29 04:56:22;;;;;;;;;22.00;11.33;;;;;17.21;57.17;101539.41;5057292;28;45556;-44
2023/05/29 04:58:48;;;;;;;;;13.67;11.00;;;;;17.19;57.01;101536.88;5057111;28;45336;-45
2023/05/29 05:01:14;;;;;;;;;13.33;12.33;;;;;17.19;57.97;101536.03;5057035;28;45412;-43
2023/05/29 05:03:43;;;;;;;;;15.67;10.33;;;;;17.18;57.71;101542.41;5057135;28;45499;-44
2023/05/29 05:06:08;;;;;;;;;12.33;8.67;;;;;17.18;58.06;101537.88;5057152;28;45469;-46
2023/05/29 05:08:34;;;;;;;;;17.00;11.33;;;;;17.19;57.88;101538.72;5056763;28;46235;-45
2023/05/29 05:11:00;;;;;;;;;12.67;10.33;;;;;17.19;57.93;101534.19;5057062;28;45407;-43
2023/05/29 05:13:26;;;;;;;;;13.00;12.67;;;;;17.21;58.02;101542.09;5056517;28;45364;-44
2023/05/29 05:15:52;;;;;;;;;12.33;11.00;;;;;17.25;57.99;101543.44;5056928;28;45411;-45
2023/05/29 05:18:17;;;;;;;;;14.67;12.67;;;;;17.13;57.86;101517.91;5056717;28;46112;-45
2023/05/29 05:20:43;;;;;;;;;14.00;12.67;;;;;17.27;57.56;101536.00;5056750;28;45359;-44
2023/05/29 05:23:09;;;;;;;;;15.00;12.00;;;;;17.27;57.82;101546.78;5056986;28;45380;-43
2023/05/29 05:25:35;;;;;;;;;17.33;11.00;;;;;17.28;57.55;101553.00;5056856;28;45601;-43
2023/05/29 05:28:02;;;;;;;;;13.67;13.00;;;;;17.32;57.69;101549.81;5056085;28;47008;-44
2023/05/29 05:30:28;;;;;;;;;13.33;11.00;;;;;17.33;57.75;101545.25;5056459;28;45426;-45
2023/05/29 05:32:53;;;;;;;;;21.00;13.00;;;;;17.38;57.80;101559.03;5056586;28;45772;-44
2023/05/29 05:35:19;;;;;;;;;19.00;13.00;;;;;17.40;57.86;101551.63;5056933;28;45221;-44
2023/05/29 05:37:44;;;;;;;;;12.33;10.67;;;;;17.37;57.13;101547.44;5056250;28;46073;-43
2023/05/29 05:40:10;;;;;;;;;14.33;13.00;;;;;17.44;57.27;101552.94;5056236;28;45321;-43
2023/05/29 05:42:35;;;;;;;;;19.33;14.67;;;;;17.46;57.79;101561.69;5056477;28;45249;-42
2023/05/29 05:45:01;;;;;;;;;20.67;13.67;;;;;17.33;57.37;101543.41;5056590;28;45447;-43
2023/05/29 05:47:29;;;;;;;;;16.00;12.67;;;;;17.46;57.60;101567.09;5056284;28;47222;-42
2023/05/29 05:49:54;;;;;;;;;19.00;12.33;;;;;17.50;57.57;101573.81;5056534;28;45451;-44
2023/05/29 05:52:20;;;;;;;;;17.00;15.33;;;;;17.50;57.35;101567.59;5056324;28;45356;-44
2023/05/29 05:54:45;;;;;;;;;14.00;12.67;;;;;17.55;57.17;101567.91;5056572;28;45337;-45
2023/05/29 05:57:11;;;;;;;;;16.67;14.67;;;;;17.56;57.04;101564.19;5056270;28;45336;-43
2023/05/29 05:59:37;;;;;;;;;17.00;15.00;;;;;17.60;57.42;101573.59;5056064;28;45444;-43
2023/05/29 06:02:03;;;;;;;;;17.00;12.67;;;;;17.65;57.43;101574.75;5055893;28;45364;-45
2023/05/29 06:04:29;;;;;;;;;21.33;15.00;;;;;17.69;56.87;101580.63;5056252;28;45472;-42
2023/05/29 06:06:55;;;;;;;;;20.00;13.00;;;;;17.56;57.05;101561.50;5055785;28;46085;-43
2023/05/29 06:09:21;;;;;;;;;20.00;15.33;;;;;17.70;56.63;101574.25;5056013;28;45264;-42
2023/05/29 06:11:47;;;;;;;;;15.00;13.00;;;;;17.75;56.71;101579.97;5055932;28;45347;-42
2023/05/29 06:14:13;;;;;;;;;16.67;12.67;;;;;17.77;56.65;101577.94;5055862;28;45543;-47
2023/05/29 06:16:38;;;;;;;;;18.67;12.67;;;;;17.81;56.79;101579.28;5055850;28;46123;-45
2023/05/29 06:19:04;;;;;;;;;18.67;14.33;;;;;17.86;56.79;101579.59;5056031;28;45684;-42
2023/05/29 06:21:29;;;;;;;;;11.33;8.00;;;;;17.89;56.15;101583.78;5056005;28;45355;-43
2023/05/29 06:23:55;;;;;;;;;12.33;11.00;;;;;17.96;55.65;101587.47;5056050;28;45421;-43
2023/05/29 06:26:21;;;;;;;;;15.33;12.67;;;;;18.00;55.97;101588.81;5054683;28;46448;-47
2023/05/29 06:28:46;;;;;;;;;15.00;13.00;;;;;18.05;55.95;101599.06;5055569;28;45427;-49
2023/05/29 06:31:11;;;;;;;;;14.33;12.67;;;;;18.10;55.87;101597.50;5055690;28;45324;-47
2023/05/29 06:33:37;;;;;;;;;14.67;14.67;;;;;18.18;55.74;101599.31;5055985;28;45539;-49
2023/05/29 06:36:03;;;;;;;;;22.00;14.00;;;;;18.24;55.42;101601.28;5055442;28;47126;-43
2023/05/29 06:38:28;;;;;;;;;17.67;15.00;;;;;18.35;55.14;101606.31;5055665;28;45315;-45
2023/05/29 06:40:54;;;;;;;;;17.00;13.00;;;;;18.75;54.50;101598.16;5059415;28;45371;-47
2023/05/29 06:43:19;;;;;;;;;18.67;11.67;;;;;19.45;53.20;101597.91;5059816;28;45328;-48
2023/05/29 06:45:44;;;;;;;;;23.67;14.00;;;;;20.69;50.90;101598.94;5059013;28;46309;-47
2023/05/29 06:48:10;;;;;;;;;17.00;14.00;;;;;21.65;48.25;101593.88;5059060;28;45297;-47
2023/05/29 06:50:35;;;;;;;;;15.67;14.33;;;;;22.50;46.88;101579.09;5059276;28;45288;-47
2023/05/29 06:53:01;;;;;;;;;18.00;14.00;;;;;23.71;44.59;101588.91;5059367;28;45387;-46
2023/05/29 06:55:26;;;;;;;;;22.00;17.33;;;;;24.50;42.85;101590.50;5058901;28;45343;-46
2023/05/29 06:57:51;;;;;;;;;15.75;12.25;;;;;25.19;40.95;101586.88;5058938;28;45229;-47
2023/05/29 07:00:17;;;;;;;;;13.50;12.00;;;;;25.69;39.93;101585.97;5059202;28;45423;-51
2023/05/29 07:02:43;;;;;;;;;16.75;13.00;;;;;26.14;39.25;101591.97;5059200;28;45507;-46
2023/05/29 07:05:08;;;;;;;;;13.75;12.75;;;;;26.77;38.21;101596.13;5058803;28;46044;-48
2023/05/29 07:07:34;;;;;;;;;18.00;13.00;;;;;27.37;36.61;101598.72;5058814;28;45395;-46
2023/05/29 07:10:00;;;;;;;;;20.00;13.50;;;;;27.97;36.06;101597.59;5058880;28;45445;-48
2023/05/29 07:12:26;;;;;;;;;14.75;12.25;;;;;28.49;34.67;101584.72;5058878;28;45569;-49
2023/05/29 07:14:51;;;;;;;;;14.25;9.75;;;;;29.00;33.58;101582.91;5058423;28;46189;-49
2023/05/29 07:17:17;;;;;;;;;16.75;13.50;;;;;29.42;33.06;101585.19;5058985;28;45585;-47
2023/05/29 07:19:42;;;;;;;;;17.75;12.25;;;;;29.84;32.91;101576.44;5058799;28;45311;-47
2023/05/29 07:22:07;;;;;;;;;10.00;10.00;;;;;30.08;32.02;101582.47;5058911;28;45487;-45
2023/05/29 07:24:33;;;;;;;;;11.00;9.75;;;;;30.30;31.80;101566.84;5058542;28;45330;-46
2023/05/29 07:26:58;;;;;;;;;16.50;12.25;;;;;30.65;30.66;101578.44;5058284;28;45422;-47
2023/05/29 07:29:24;;;;;;;;;12.50;10.00;;;;;30.89;30.94;101592.69;5058484;28;45395;-47
2023/05/29 07:31:50;;;;;;;;;14.25;11.00;;;;;31.08;30.53;101596.69;5058671;28;45410;-49
2023/05/29 07:34:16;;;;;;;;;15.20;10.00;;;;;31.43;29.89;101598.88;5058066;28;45367;-45
2023/05/29 07:37:05;;;;;;;;;13.75;11.00;;;;;31.77;29.98;101599.34;5058411;28;45314;-44
2023/05/29 07:39:31;;;;;;;;;9.80;8.20;;;;;32.10;30.00;101596.47;5058352;28;45679;-47
2023/05/29 07:41:57;;;;;;;;;10.40;10.40;;;;;32.31;28.73;101592.69;5058759;28;45379;-47
2023/05/29 07:44:22;;;;;;;;;11.50;10.50;;;;;32.41;28.77;101580.91;5057731;28;47274;-46
2023/05/29 07:46:48;;;;;;;;;12.75;10.25;;;;;32.70;28.22;101595.81;5058479;28;45427;-47
2023/05/29 07:49:14;;;;;;;;;13.50;10.00;;;;;32.91;27.25;101593.88;5058311;28;45323;-50
2023/05/29 07:51:40;;;;;;;;;11.20;10.00;;;;;33.22;27.33;101593.88;5057022;28;45749;-49
2023/05/29 07:54:06;;;;;;;;;11.50;11.50;;;;;33.49;26.45;101591.63;5058123;28;46894;-52
2023/05/29 07:56:33;;;;;;;;;9.00;9.00;;;;;33.80;26.90;101593.50;5058232;28;45331;-50
2023/05/29 07:58:59;;;;;;;;;13.00;12.00;;;;;34.10;26.28;101589.78;5058719;28;45348;-43
2023/05/29 08:01:24;;;;;;;;;12.00;10.00;;;;;34.35;25.55;101586.06;5058340;28;45510;-44
2023/05/29 08:03:49;;;;;;;;;13.00;10.00;;;;;34.58;26.67;101588.09;5058124;28;46075;-46
2023/05/29 08:06:15;;;;;;;;;14.00;12.00;;;;;34.81;25.35;101589.31;5058156;28;45380;-48
2023/05/29 08:08:41;;;;;;;;;18.50;12.50;;;;;34.82;25.38;101579.91;5058039;28;45408;-47
2023/05/29 08:11:06;;;;;;;;;13.20;11.60;;;;;35.07;25.34;101580.81;5058198;28;45356;-47
2023/05/29 08:13:33;;;;;;;;;10.50;9.00;;;;;35.20;25.06;101591.19;5057409;28;45442;-45
2023/05/29 08:15:58;;;;;;;;;12.40;10.60;;;;;35.20;24.73;101582.91;5057567;28;48281;-45
2023/05/29 08:18:27;;;;;;;;;12.00;10.25;;;;;35.32;25.54;101591.63;5057744;28;45423;-45
2023/05/29 08:20:52;;;;;;;;;13.40;10.80;;;;;35.53;24.55;101588.69;5058034;28;45393;-51
2023/05/29 08:23:18;;;;;;;;;9.00;9.00;;;;;35.56;25.04;101566.75;5057708;28;47114;-44
2023/05/29 08:25:44;;;;;;;;;13.50;11.00;;;;;35.83;23.87;101598.53;5057441;28;45675;-45
2023/05/29 08:28:09;;;;;;;;;11.25;8.75;;;;;35.93;24.48;101590.09;5057575;28;45677;-45
2023/05/29 08:30:34;;;;;;;;;12.00;10.75;;;;;36.02;23.89;101590.28;5057480;28;45418;-45
2023/05/29 08:33:00;;;;;;;;;11.50;11.50;;;;;36.15;23.99;101606.16;5057345;28;46099;-45
2023/05/29 08:35:25;;;;;;;;;10.75;10.00;;;;;36.19;23.65;101590.59;5057147;28;46862;-46
2023/05/29 08:37:51;;;;;;;;;12.25;9.00;;;;;36.51;23.70;101603.72;5057524;28;45386;-46
2023/05/29 08:40:16;;;;;;;;;10.25;10.25;;;;;36.68;23.60;101606.78;5057634;28;45406;-46
2023/05/29 08:42:49;;;;;;;;;10.75;9.50;;;;;36.79;23.91;101595.50;5057266;28;45962;-43
2023/05/29 08:45:18;;;;;;;;;12.60;9.20;;;;;36.77;23.01;101598.59;5057246;28;45493;-47
2023/05/29 08:47:47;;;;;;;;;10.20;8.60;;;;;36.93;22.69;101593.66;5057166;28;45434;-46
2023/05/29 08:50:15;;;;;;;;;9.80;8.20;;;;;36.88;23.06;101586.22;5057093;28;45502;-47
2023/05/29 08:52:40;;;;;;;;;9.20;9.20;;;;;37.08;22.86;101598.09;5057157;28;45413;-49
2023/05/29 08:55:07;;;;;;;;;12.25;11.00;;;;;37.20;22.05;101596.47;5056765;28;45469;-47
2023/05/29 08:57:32;;;;;;;;;13.00;10.00;;;;;37.30;22.54;101597.41;5057180;28;45444;-48
2023/05/29 08:59:58;;;;;;;;;13.50;10.50;;;;;37.32;22.66;101593.19;5056916;28;45329;-47
2023/05/29 09:02:23;;;;;;;;;11.25;10.75;;;;;37.48;22.33;101595.72;5055185;28;45957;-46
2023/05/29 09:04:49;;;;;;;;;12.25;11.00;;;;;37.52;21.98;101600.34;5056909;28;45367;-49
2023/05/29 09:07:19;;;;;;;;;12.25;10.25;;;;;37.49;22.56;101600.94;5057184;28;45431;-51
2023/05/29 09:09:46;;;;;;;;;10.60;9.20;;;;;37.64;22.22;101600.66;5057447;28;45351;-50
2023/05/29 09:12:11;;;;;;;;;11.60;10.40;;;;;37.75;21.82;101601.25;5056659;28;45891;-50
2023/05/29 09:14:42;;;;;;;;;11.25;10.25;;;;;37.81;22.08;101608.34;5056905;28;45319;-49
2023/05/29 09:17:09;;;;;;;;;11.20;11.00;;;;;37.93;21.89;101605.09;5057084;28;45428;-48
2023/05/29 09:19:36;;;;;;;;;10.40;10.00;;;;;38.05;22.26;101601.75;5072724;28;45451;-47
2023/05/29 09:22:15;;;;;;;;;10.20;9.60;;;;;38.11;22.47;101593.00;5056837;28;46381;-50
2023/05/29 09:24:41;;;;;;;;;14.80;10.40;;;;;38.23;21.77;101594.41;5056810;28;45233;-47
2023/05/29 09:27:08;;;;;;;;;12.60;11.00;;;;;38.29;21.96;101602.31;5056534;28;45613;-47
2023/05/29 09:29:38;;;;;;;;;11.20;10.40;;;;;38.33;21.57;101602.53;5057087;28;45380;-49
2023/05/29 09:32:08;;;;;;;;;13.60;10.20;;;;;38.33;21.55;101600.56;5056315;28;46390;-50
2023/05/29 09:34:34;;;;;;;;;13.80;11.60;;;;;38.35;21.50;101598.31;5056386;28;45471;-50
2023/05/29 09:37:08;;;;;;;;;14.50;11.00;;;;;38.36;21.69;101597.19;5056577;28;45392;-50
2023/05/29 09:39:49;;;;;;;;;12.00;11.20;;;;;38.30;22.31;101598.38;5056755;28;45267;-48
2023/05/29 09:42:16;;;;;;;;;10.80;10.20;;;;;38.26;22.09;101593.78;5056138;28;46255;-48
2023/05/29 09:44:42;;;;;;;;;11.20;11.20;;;;;38.11;22.28;101595.78;5056322;28;45408;-47
2023/05/29 09:47:07;;;;;;;;;11.80;11.60;;;;;38.00;22.07;101599.91;5056208;28;45371;-46
2023/05/29 09:49:33;;;;;;;;;11.25;10.00;;;;;37.92;22.05;101595.09;5056410;28;45596;-48
2023/05/29 09:51:59;;;;;;;;;20.25;16.25;;;;;37.75;22.27;101592.91;5056034;28;46080;-49
2023/05/29 09:54:30;;;;;;;;;17.00;12.00;;;;;37.51;22.54;101589.56;5056135;28;45542;-46
2023/05/29 09:56:58;;;;;;;;;13.00;11.40;;;;;37.31;23.03;101571.31;5056242;28;45183;-50
2023/05/29 09:59:24;;;;;;;;;13.60;13.60;;;;;37.19;22.70;101591.22;5056458;28;45258;-48
2023/05/29 10:02:01;;;;;;;;;16.20;14.00;;;;;36.99;22.96;101586.88;5055936;28;46093;-47
2023/05/29 10:04:27;;;;;;;;;15.00;13.60;;;;;36.82;22.99;101583.81;5055806;28;45394;-49
2023/05/29 10:06:56;;;;;;;;;17.40;15.80;;;;;36.64;23.54;101582.75;5056118;28;45353;-45
2023/05/29 10:09:25;;;;;;;;;16.40;14.60;;;;;36.45;23.80;101585.53;5056386;28;45472;-43
2023/05/29 10:11:53;;;;;;;;;18.20;14.60;;;;;36.22;23.51;101584.47;5055577;28;47572;-46
2023/05/29 10:14:19;;;;;;;;;11.20;11.20;;;;;36.06;23.87;101586.63;5054955;28;45979;-51
2023/05/29 10:16:46;;;;;;;;;16.40;11.80;;;;;35.93;24.14;101584.56;5055747;28;45375;-52
2023/05/29 10:19:22;;;;;;;;;13.80;12.40;;;;;35.83;24.71;101571.69;5056105;28;45408;-50
2023/05/29 10:21:48;;;;;;;;;20.80;16.00;;;;;35.77;24.24;101572.03;5055800;28;46192;-51
2023/05/29 10:24:15;;;;;;;;;19.00;15.40;;;;;35.53;24.39;101588.69;5055952;28;45417;-51
2023/05/29 10:26:45;;;;;;;;;16.80;15.40;;;;;35.21;24.58;101563.25;5055712;28;45444;-47
2023/05/29 10:29:27;;;;;;;;;16.00;12.60;;;;;35.10;24.98;101575.53;5056074;28;45203;-49
2023/05/29 10:32:11;;;;;;;;;15.00;12.40;;;;;34.87;25.51;101573.50;5055506;28;47102;-51
2023/05/29 10:34:45;;;;;;;;;17.80;14.20;;;;;34.69;26.00;101570.34;5055582;28;45363;-50
2023/05/29 10:37:43;;;;;;;;;18.40;17.80;;;;;34.54;26.21;101566.88;5055578;28;45294;-46
2023/05/29 10:40:13;;;;;;;;;16.00;14.20;;;;;34.36;26.47;101563.66;5094080;27;45370;-47
2023/05/29 10:42:58;;;;;;;;;17.80;16.20;;;;;34.17;26.51;101565.44;5093918;27;45537;-46
2023/05/29 10:45:29;;;;;;;;;24.00;19.60;;;;;33.95;26.77;101565.78;5093698;27;45410;-45
2023/05/29 10:47:55;;;;;;;;;20.20;18.40;;;;;33.85;26.01;101574.13;5094192;27;45310;-43
2023/05/29 10:50:42;;;;;;;;;17.00;15.75;;;;;33.64;26.74;101571.47;5094230;27;45548;-47
2023/05/29 10:53:12;;;;;;;;;17.20;14.40;;;;;33.46;27.23;101586.69;5093887;27;45412;-42
2023/05/29 10:55:40;;;;;;;;;15.80;15.40;;;;;33.31;27.32;101578.41;5094214;27;45518;-47
2023/05/29 10:58:12;;;;;;;;;17.40;17.40;;;;;33.09;27.55;101575.16;5093973;27;45309;-42
2023/05/29 11:00:41;;;;;;;;;20.00;17.20;;;;;32.76;27.58;101577.34;5094171;27;45356;-42
2023/05/29 11:03:10;;;;;;;;;18.60;18.60;;;;;32.35;28.36;101579.19;5093629;27;46080;-48
2023/05/29 11:05:59;;;;;;;;;22.20;20.00;;;;;31.85;28.99;101576.00;5093844;27;45425;-47
2023/05/29 11:08:35;;;;;;;;;20.80;19.60;;;;;31.41;29.50;101573.59;5093511;27;45404;-45
2023/05/29 11:11:00;;;;;;;;;20.60;18.20;;;;;31.02;29.95;101562.84;5093922;27;45547;-48